sensor_id;sensor_type;location;lat;lon;timestamp;temperature;humidity
10231;DHT22;62604;49.432;8.680;2023-03-04T00:00:20;1.10;96.40
10231;DHT22;62604;49.432;8.680;2023-03-04T00:02:47;1.10;96.90
10231;DHT22;62604;49.432;8.680;2023-03-04T00:05:14;1.00;97.20
10231;DHT22;62604;49.432;8.680;2023-03-04T00:07:40;1.00;97.90
10231;DHT22;62604;49.432;8.680;2023-03-04T00:10:09;1.00;98.40
10231;DHT22;62604;49.432;8.680;2023-03-04T00:12:36;1.00;98.10
10231;DHT22;62604;49.432;8.680;2023-03-04T00:15:05;0.90;98.40
10231;DHT22;62604;49.432;8.680;2023-03-04T00:17:32;0.90;98.70
10231;DHT22;62604;49.432;8.680;2023-03-04T00:19:59;0.80;98.90
10231;DHT22;62604;49.432;8.680;2023-03-04T00:22:26;0.80;99.40
10231;DHT22;62604;49.432;8.680;2023-03-04T00:24:53;0.70;99.50
10231;DHT22;62604;49.432;8.680;2023-03-04T00:27:20;0.70;99.90
10231;DHT22;62604;49.432;8.680;2023-03-04T00:29:46;0.70;99.90
10231;DHT22;62604;49.432;8.680;2023-03-04T00:32:15;0.60;99.90
10231;DHT22;62604;49.432;8.680;2023-03-04T00:34:42;0.50;99.90
10231;DHT22;62604;49.432;8.680;2023-03-04T00:37:09;0.50;99.90
10231;DHT22;62604;49.432;8.680;2023-03-04T00:39:36;0.50;99.90
10231;DHT22;62604;49.432;8.680;2023-03-04T00:42:03;0.40;99.90
10231;DHT22;62604;49.432;8.680;2023-03-04T00:44:30;0.40;99.90
10231;DHT22;62604;49.432;8.680;2023-03-04T00:46:57;0.40;99.90
10231;DHT22;62604;49.432;8.680;2023-03-04T00:49:25;0.30;99.90
10231;DHT22;62604;49.432;8.680;2023-03-04T00:51:52;0.30;99.90
10231;DHT22;62604;49.432;8.680;2023-03-04T00:54:19;0.20;99.90
10231;DHT22;62604;49.432;8.680;2023-03-04T00:56:46;0.20;99.90
10231;DHT22;62604;49.432;8.680;2023-03-04T00:59:13;0.10;99.90
10231;DHT22;62604;49.432;8.680;2023-03-04T01:01:40;0.20;99.90
10231;DHT22;62604;49.432;8.680;2023-03-04T01:04:06;0.10;99.90
10231;DHT22;62604;49.432;8.680;2023-03-04T01:06:35;0.10;99.90
10231;DHT22;62604;49.432;8.680;2023-03-04T01:09:02;0.10;99.90
10231;DHT22;62604;49.432;8.680;2023-03-04T01:11:29;0.00;99.90
10231;DHT22;62604;49.432;8.680;2023-03-04T01:13:56;0.00;99.90
10231;DHT22;62604;49.432;8.680;2023-03-04T01:16:23;0.10;99.90
10231;DHT22;62604;49.432;8.680;2023-03-04T01:18:50;0.10;99.90
10231;DHT22;62604;49.432;8.680;2023-03-04T01:21:17;0.00;99.90
10231;DHT22;62604;49.432;8.680;2023-03-04T01:23:45;0.10;99.90
10231;DHT22;62604;49.432;8.680;2023-03-04T01:26:12;0.10;99.90
10231;DHT22;62604;49.432;8.680;2023-03-04T01:28:39;0.10;99.90
10231;DHT22;62604;49.432;8.680;2023-03-04T12:47:35;5.60;77.50
10231;DHT22;62604;49.432;8.680;2023-03-04T12:50:28;5.80;76.20
10231;DHT22;62604;49.432;8.680;2023-03-04T12:53:03;6.00;75.10
10231;DHT22;62604;49.432;8.680;2023-03-04T12:55:36;6.10;73.60
10231;DHT22;62604;49.432;8.680;2023-03-04T12:58:04;6.20;72.50
10231;DHT22;62604;49.432;8.680;2023-03-04T13:00:41;6.10;71.50
10231;DHT22;62604;49.432;8.680;2023-03-04T13:03:17;6.10;71.20
10231;DHT22;62604;49.432;8.680;2023-03-04T13:06:05;5.90;70.70
10231;DHT22;62604;49.432;8.680;2023-03-04T13:08:43;5.90;71.50
10231;DHT22;62604;49.432;8.680;2023-03-04T13:11:42;5.80;71.70
10231;DHT22;62604;49.432;8.680;2023-03-04T13:17:36;5.80;71.50
10231;DHT22;62604;49.432;8.680;2023-03-04T13:20:21;5.70;71.60
10231;DHT22;62604;49.432;8.680;2023-03-04T13:22:54;5.70;71.50
10231;DHT22;62604;49.432;8.680;2023-03-04T13:25:36;5.60;71.30
10231;DHT22;62604;49.432;8.680;2023-03-04T13:28:31;5.60;71.50
10231;DHT22;62604;49.432;8.680;2023-03-04T13:31:21;5.50;71.90
10231;DHT22;62604;49.432;8.680;2023-03-04T13:33:56;5.40;72.50
10231;DHT22;62604;49.432;8.680;2023-03-04T13:36:52;5.50;72.40
10231;DHT22;62604;49.432;8.680;2023-03-04T13:39:34;5.60;72.50
10231;DHT22;62604;49.432;8.680;2023-03-04T13:42:03;5.50;72.60
10231;DHT22;62604;49.432;8.680;2023-03-04T13:44:56;5.40;72.50
10231;DHT22;62604;49.432;8.680;2023-03-04T13:47:44;5.50;73.50
10231;DHT22;62604;49.432;8.680;2023-03-04T13:50:33;5.60;73.10
10231;DHT22;62604;49.432;8.680;2023-03-04T13:53:32;5.60;72.70
10231;DHT22;62604;49.432;8.680;2023-03-04T13:56:21;5.60;72.60
10231;DHT22;62604;49.432;8.680;2023-03-04T13:58:51;5.60;72.50
10231;DHT22;62604;49.432;8.680;2023-03-04T14:01:25;5.50;72.40
10231;DHT22;62604;49.432;8.680;2023-03-04T14:03:53;5.40;72.70
10231;DHT22;62604;49.432;8.680;2023-03-04T14:06:22;5.50;72.90
10231;DHT22;62604;49.432;8.680;2023-03-04T14:08:51;5.50;73.00
10231;DHT22;62604;49.432;8.680;2023-03-04T14:11:26;5.50;73.50
10231;DHT22;62604;49.432;8.680;2023-03-04T14:13:54;5.50;73.20
10231;DHT22;62604;49.432;8.680;2023-03-04T14:16:26;5.50;72.90
10231;DHT22;62604;49.432;8.680;2023-03-04T14:19:01;5.50;72.80
10231;DHT22;62604;49.432;8.680;2023-03-04T14:21:29;5.50;72.90
10231;DHT22;62604;49.432;8.680;2023-03-04T14:24:03;5.50;72.80
10231;DHT22;62604;49.432;8.680;2023-03-04T14:26:31;5.50;73.40
10231;DHT22;62604;49.432;8.680;2023-03-04T14:28:58;5.50;73.40
10231;DHT22;62604;49.432;8.680;2023-03-04T14:31:29;5.60;73.10
10231;DHT22;62604;49.432;8.680;2023-03-04T14:33:58;5.60;72.80
10231;DHT22;62604;49.432;8.680;2023-03-04T14:36:28;5.60;73.10
10231;DHT22;62604;49.432;8.680;2023-03-04T14:38:57;5.60;73.10
10231;DHT22;62604;49.432;8.680;2023-03-04T14:41:28;5.60;72.70
10231;DHT22;62604;49.432;8.680;2023-03-04T14:44:03;5.50;73.30
10231;DHT22;62604;49.432;8.680;2023-03-04T14:46:36;5.60;73.60
10231;DHT22;62604;49.432;8.680;2023-03-04T14:49:05;5.60;73.30
10231;DHT22;62604;49.432;8.680;2023-03-04T14:51:40;5.60;73.50
10231;DHT22;62604;49.432;8.680;2023-03-04T14:54:23;5.70;74.00
10231;DHT22;62604;49.432;8.680;2023-03-04T14:56:52;5.70;73.00
10231;DHT22;62604;49.432;8.680;2023-03-04T14:59:27;5.70;72.60
10231;DHT22;62604;49.432;8.680;2023-03-04T15:02:14;5.50;72.40
10231;DHT22;62604;49.432;8.680;2023-03-04T15:04:42;5.60;72.90
10231;DHT22;62604;49.432;8.680;2023-03-04T15:07:14;5.70;73.10
10231;DHT22;62604;49.432;8.680;2023-03-04T15:09:49;5.60;72.00
10231;DHT22;62604;49.432;8.680;2023-03-04T15:12:24;5.50;73.10
10231;DHT22;62604;49.432;8.680;2023-03-04T15:14:53;5.60;73.00
10231;DHT22;62604;49.432;8.680;2023-03-04T15:17:28;5.70;72.80
10231;DHT22;62604;49.432;8.680;2023-03-04T15:20:00;5.70;72.70
10231;DHT22;62604;49.432;8.680;2023-03-04T15:22:28;5.80;72.60
10231;DHT22;62604;49.432;8.680;2023-03-04T15:24:55;5.80;72.40
10231;DHT22;62604;49.432;8.680;2023-03-04T15:27:27;5.90;72.10
10231;DHT22;62604;49.432;8.680;2023-03-04T15:29:56;5.80;71.40
10231;DHT22;62604;49.432;8.680;2023-03-04T15:32:25;5.60;72.20
10231;DHT22;62604;49.432;8.680;2023-03-04T15:34:52;5.70;72.80
10231;DHT22;62604;49.432;8.680;2023-03-04T15:37:21;5.80;72.60
10231;DHT22;62604;49.432;8.680;2023-03-04T15:39:49;5.80;72.40
10231;DHT22;62604;49.432;8.680;2023-03-04T15:42:17;5.90;72.30
10231;DHT22;62604;49.432;8.680;2023-03-04T15:44:45;5.90;72.20
10231;DHT22;62604;49.432;8.680;2023-03-04T15:47:12;6.00;72.20
10231;DHT22;62604;49.432;8.680;2023-03-04T15:49:40;5.90;72.40
10231;DHT22;62604;49.432;8.680;2023-03-04T15:52:14;5.80;72.00
10231;DHT22;62604;49.432;8.680;2023-03-04T15:54:41;5.80;72.30
10231;DHT22;62604;49.432;8.680;2023-03-04T15:57:17;5.70;73.00
10231;DHT22;62604;49.432;8.680;2023-03-04T15:59:47;5.70;72.80
10231;DHT22;62604;49.432;8.680;2023-03-04T16:02:18;5.80;72.80
10231;DHT22;62604;49.432;8.680;2023-03-04T16:04:45;5.80;72.70
10231;DHT22;62604;49.432;8.680;2023-03-04T16:07:15;5.70;72.80
10231;DHT22;62604;49.432;8.680;2023-03-04T16:09:43;5.60;73.10
10231;DHT22;62604;49.432;8.680;2023-03-04T16:12:11;5.70;73.80
10231;DHT22;62604;49.432;8.680;2023-03-04T16:14:39;5.70;73.20
10231;DHT22;62604;49.432;8.680;2023-03-04T16:17:09;5.70;73.50
10231;DHT22;62604;49.432;8.680;2023-03-04T16:19:36;5.70;74.10
10231;DHT22;62604;49.432;8.680;2023-03-04T16:22:03;5.60;74.30
10231;DHT22;62604;49.432;8.680;2023-03-04T16:24:31;5.60;74.50
10231;DHT22;62604;49.432;8.680;2023-03-04T16:26:59;5.60;74.80
10231;DHT22;62604;49.432;8.680;2023-03-04T16:29:26;5.50;74.90
10231;DHT22;62604;49.432;8.680;2023-03-04T16:31:54;5.40;75.20
10231;DHT22;62604;49.432;8.680;2023-03-04T16:34:22;5.30;75.60
10231;DHT22;62604;49.432;8.680;2023-03-04T18:02:55;4.60;81.30
10231;DHT22;62604;49.432;8.680;2023-03-04T18:05:37;4.60;82.00
10231;DHT22;62604;49.432;8.680;2023-03-04T18:08:05;4.60;82.00
10231;DHT22;62604;49.432;8.680;2023-03-04T18:10:33;4.60;82.10
10231;DHT22;62604;49.432;8.680;2023-03-04T18:13:01;4.60;82.00
10231;DHT22;62604;49.432;8.680;2023-03-04T18:15:29;4.60;82.10
10231;DHT22;62604;49.432;8.680;2023-03-04T18:17:58;4.70;82.10
10231;DHT22;62604;49.432;8.680;2023-03-04T18:20:28;4.70;82.00
10231;DHT22;62604;49.432;8.680;2023-03-04T18:22:55;4.70;81.70
10231;DHT22;62604;49.432;8.680;2023-03-04T18:25:25;4.70;81.50
10231;DHT22;62604;49.432;8.680;2023-03-04T18:27:53;4.50;81.40
10231;DHT22;62604;49.432;8.680;2023-03-04T18:30:21;4.60;81.60
10231;DHT22;62604;49.432;8.680;2023-03-04T18:32:52;4.60;81.70
10231;DHT22;62604;49.432;8.680;2023-03-04T18:35:21;4.60;81.60
10231;DHT22;62604;49.432;8.680;2023-03-04T18:37:49;4.60;81.80
10231;DHT22;62604;49.432;8.680;2023-03-04T18:40:17;4.60;82.00
10231;DHT22;62604;49.432;8.680;2023-03-04T18:42:45;4.70;82.10
10231;DHT22;62604;49.432;8.680;2023-03-04T18:45:15;4.70;81.80
10231;DHT22;62604;49.432;8.680;2023-03-04T18:47:45;4.80;81.80
10231;DHT22;62604;49.432;8.680;2023-03-04T18:50:14;4.80;82.00
10231;DHT22;62604;49.432;8.680;2023-03-04T18:52:43;4.90;82.00
10231;DHT22;62604;49.432;8.680;2023-03-04T18:55:10;5.00;81.70
10231;DHT22;62604;49.432;8.680;2023-03-04T18:57:44;4.80;81.20
10231;DHT22;62604;49.432;8.680;2023-03-04T19:00:16;4.80;81.50
10231;DHT22;62604;49.432;8.680;2023-03-04T19:02:46;4.90;81.60
10231;DHT22;62604;49.432;8.680;2023-03-04T19:05:20;4.90;81.40
10231;DHT22;62604;49.432;8.680;2023-03-04T19:07:50;4.60;81.60
10231;DHT22;62604;49.432;8.680;2023-03-04T19:10:19;4.80;81.50
10231;DHT22;62604;49.432;8.680;2023-03-04T19:12:48;4.80;81.70
10231;DHT22;62604;49.432;8.680;2023-03-04T19:15:16;4.80;82.00
10231;DHT22;62604;49.432;8.680;2023-03-04T19:17:45;4.80;81.70
10231;DHT22;62604;49.432;8.680;2023-03-04T19:20:14;4.80;81.60
10231;DHT22;62604;49.432;8.680;2023-03-04T19:22:42;4.80;81.60
10231;DHT22;62604;49.432;8.680;2023-03-04T19:25:12;4.80;81.30
10231;DHT22;62604;49.432;8.680;2023-03-04T19:27:39;5.00;81.40
10231;DHT22;62604;49.432;8.680;2023-03-04T19:30:11;4.80;81.20
10231;DHT22;62604;49.432;8.680;2023-03-04T19:32:43;4.80;81.50
10231;DHT22;62604;49.432;8.680;2023-03-04T19:35:10;4.90;81.50
10231;DHT22;62604;49.432;8.680;2023-03-04T19:37:38;4.70;81.10
10231;DHT22;62604;49.432;8.680;2023-03-04T19:40:08;4.90;81.10
10231;DHT22;62604;49.432;8.680;2023-03-04T19:42:37;4.80;80.80
10231;DHT22;62604;49.432;8.680;2023-03-04T19:45:06;4.80;80.90
10231;DHT22;62604;49.432;8.680;2023-03-04T19:47:36;4.80;81.10
10231;DHT22;62604;49.432;8.680;2023-03-04T19:50:10;4.90;81.20
10231;DHT22;62604;49.432;8.680;2023-03-04T19:52:41;4.90;80.90
10231;DHT22;62604;49.432;8.680;2023-03-04T19:55:10;4.90;80.60
10231;DHT22;62604;49.432;8.680;2023-03-04T19:57:41;4.90;80.60
10231;DHT22;62604;49.432;8.680;2023-03-04T20:00:11;4.80;80.80
10231;DHT22;62604;49.432;8.680;2023-03-04T20:02:39;4.80;81.10
10231;DHT22;62604;49.432;8.680;2023-03-04T20:05:08;4.90;81.00
10231;DHT22;62604;49.432;8.680;2023-03-04T20:07:44;4.90;81.00
10231;DHT22;62604;49.432;8.680;2023-03-04T20:10:17;4.90;80.90
10231;DHT22;62604;49.432;8.680;2023-03-04T20:12:46;4.90;80.80
10231;DHT22;62604;49.432;8.680;2023-03-04T20:15:18;5.00;81.00
10231;DHT22;62604;49.432;8.680;2023-03-04T20:17:46;4.90;81.00
10231;DHT22;62604;49.432;8.680;2023-03-04T20:20:14;4.80;80.90
10231;DHT22;62604;49.432;8.680;2023-03-04T20:22:41;4.80;81.30
10231;DHT22;62604;49.432;8.680;2023-03-04T20:25:08;4.70;81.30
10231;DHT22;62604;49.432;8.680;2023-03-04T20:27:36;4.90;81.10
10231;DHT22;62604;49.432;8.680;2023-03-04T20:30:09;5.00;80.90
10231;DHT22;62604;49.432;8.680;2023-03-04T20:32:37;5.00;80.60
10231;DHT22;62604;49.432;8.680;2023-03-04T20:35:05;4.90;80.60
10231;DHT22;62604;49.432;8.680;2023-03-04T20:37:38;4.90;80.30
10231;DHT22;62604;49.432;8.680;2023-03-04T20:40:07;5.00;80.60
10231;DHT22;62604;49.432;8.680;2023-03-04T20:42:40;5.00;80.70
10231;DHT22;62604;49.432;8.680;2023-03-04T20:45:10;5.00;80.70
10231;DHT22;62604;49.432;8.680;2023-03-04T20:47:38;4.90;80.50
10231;DHT22;62604;49.432;8.680;2023-03-04T20:50:10;4.80;80.90
10231;DHT22;62604;49.432;8.680;2023-03-04T20:52:38;4.90;81.00
10231;DHT22;62604;49.432;8.680;2023-03-04T20:55:06;4.90;81.20
10231;DHT22;62604;49.432;8.680;2023-03-04T20:57:34;4.90;81.10
10231;DHT22;62604;49.432;8.680;2023-03-04T21:00:01;4.90;81.10
10231;DHT22;62604;49.432;8.680;2023-03-04T21:02:30;5.00;81.30
10231;DHT22;62604;49.432;8.680;2023-03-04T21:04:58;5.00;81.00
10231;DHT22;62604;49.432;8.680;2023-03-04T21:07:26;5.00;80.20
10231;DHT22;62604;49.432;8.680;2023-03-04T21:09:53;5.00;80.30
10231;DHT22;62604;49.432;8.680;2023-03-04T21:12:22;5.00;80.30
10231;DHT22;62604;49.432;8.680;2023-03-04T21:14:50;5.10;80.50
10231;DHT22;62604;49.432;8.680;2023-03-04T21:17:17;5.00;80.40
10231;DHT22;62604;49.432;8.680;2023-03-04T21:19:47;5.00;80.60
10231;DHT22;62604;49.432;8.680;2023-03-04T21:22:17;5.10;80.70
10231;DHT22;62604;49.432;8.680;2023-03-04T21:24:45;5.10;80.80
10231;DHT22;62604;49.432;8.680;2023-03-04T21:27:14;5.10;81.90
10231;DHT22;62604;49.432;8.680;2023-03-04T21:29:43;5.00;84.20
10231;DHT22;62604;49.432;8.680;2023-03-04T21:32:14;4.90;84.30
10231;DHT22;62604;49.432;8.680;2023-03-04T21:34:45;4.80;83.90
10231;DHT22;62604;49.432;8.680;2023-03-04T21:37:14;4.70;84.60
10231;DHT22;62604;49.432;8.680;2023-03-04T21:39:47;4.70;85.80
10231;DHT22;62604;49.432;8.680;2023-03-04T21:42:15;4.70;86.40
10231;DHT22;62604;49.432;8.680;2023-03-04T21:44:46;4.50;86.80
10231;DHT22;62604;49.432;8.680;2023-03-04T21:47:17;4.70;87.70
10231;DHT22;62604;49.432;8.680;2023-03-04T21:49:46;4.70;86.70
10231;DHT22;62604;49.432;8.680;2023-03-04T21:52:19;4.70;87.50
10231;DHT22;62604;49.432;8.680;2023-03-04T21:54:47;4.70;87.90
10231;DHT22;62604;49.432;8.680;2023-03-04T21:57:15;4.70;88.10
10231;DHT22;62604;49.432;8.680;2023-03-04T21:59:43;4.80;88.20
